createdAt,value
2023-02-11T00:00:23.013Z,23.40
2023-02-11T00:05:46.360Z,22.08
2023-02-11T00:10:53.114Z,24.10
2023-02-11T00:15:58.180Z,22.48
2023-02-11T00:21:01.591Z,22.63
2023-02-11T00:26:05.769Z,22.10
2023-02-11T00:31:10.582Z,23.55
2023-02-11T00:36:17.415Z,22.88
2023-02-11T00:41:21.584Z,23.45
2023-02-11T00:46:26.506Z,22.48
2023-02-11T00:51:30.117Z,22.48
2023-02-11T00:56:33.608Z,25.00
2023-02-11T01:01:38.382Z,22.00
2023-02-11T01:06:41.856Z,24.63
2023-02-11T01:11:45.279Z,25.17
2023-02-11T01:16:50.024Z,23.27
2023-02-11T01:21:53.444Z,23.88
2023-02-11T01:26:56.862Z,24.00
2023-02-11T01:32:02.070Z,23.35
2023-02-11T01:37:05.936Z,25.85
2023-02-11T01:42:12.933Z,24.08
2023-02-11T01:47:17.865Z,24.45
2023-02-11T01:52:26.425Z,24.27
2023-02-11T01:57:33.232Z,24.77
2023-02-11T02:02:45.256Z,25.42
2023-02-11T02:07:57.317Z,24.70
2023-02-11T02:13:00.709Z,23.02
2023-02-11T02:18:30.543Z,26.02
2023-02-11T02:23:53.544Z,23.77
2023-02-11T02:29:28.202Z,23.50
2023-02-11T02:34:43.148Z,21.98
2023-02-11T02:39:48.021Z,21.83
2023-02-11T02:44:54.144Z,23.20
2023-02-11T02:49:59.069Z,22.48
2023-02-11T02:55:26.484Z,21.42
2023-02-11T03:00:36.544Z,23.15
2023-02-11T03:05:50.180Z,21.42
2023-02-11T03:10:55.376Z,20.58
2023-02-11T03:16:01.858Z,20.70
2023-02-11T03:21:09.280Z,21.50
2023-02-11T03:26:19.667Z,21.13
2023-02-11T03:31:30.529Z,20.80
2023-02-11T03:36:46.063Z,19.55
2023-02-11T03:41:53.610Z,21.00
2023-02-11T03:46:57.492Z,19.83
2023-02-11T03:52:05.700Z,21.08
2023-02-11T03:57:09.536Z,18.65
2023-02-11T04:02:13.206Z,18.35
2023-02-11T04:07:18.271Z,17.92
2023-02-11T04:12:22.121Z,19.42
2023-02-11T04:17:25.662Z,19.58
2023-02-11T04:22:31.021Z,17.70
2023-02-11T04:27:34.821Z,19.58
2023-02-11T04:32:38.167Z,20.15
2023-02-11T04:37:43.173Z,19.75
2023-02-11T04:42:46.895Z,19.33
2023-02-11T04:47:50.325Z,19.60
2023-02-11T04:52:55.546Z,20.52
2023-02-11T04:57:59.173Z,20.77
2023-02-11T05:03:02.594Z,20.10
2023-02-11T05:08:07.522Z,20.52
2023-02-11T05:13:10.920Z,19.17
2023-02-11T05:18:14.900Z,20.23
2023-02-11T05:23:19.656Z,22.02
2023-02-11T05:28:23.140Z,20.30
2023-02-11T05:33:26.789Z,20.45
2023-02-11T05:38:31.953Z,22.20
2023-02-11T05:43:36.584Z,21.20
2023-02-11T05:48:40.022Z,20.02
2023-02-11T05:53:44.748Z,20.95
2023-02-11T05:58:48.122Z,21.77
2023-02-11T06:03:51.588Z,19.35
2023-02-11T06:08:56.492Z,21.30
2023-02-11T06:13:59.890Z,21.45
2023-02-11T06:19:03.266Z,18.45
2023-02-11T06:24:09.085Z,18.95
2023-02-11T06:29:12.976Z,21.30
2023-02-11T06:34:16.446Z,20.05
2023-02-11T06:39:21.167Z,19.70
2023-02-11T06:44:24.940Z,17.83
2023-02-11T06:49:28.706Z,18.65
2023-02-11T06:54:33.474Z,17.20
2023-02-11T06:59:36.883Z,18.40
2023-02-11T07:04:40.272Z,18.58
2023-02-11T07:09:45.105Z,16.88
2023-02-11T07:14:48.479Z,17.83
2023-02-11T07:19:51.873Z,17.85
2023-02-11T07:24:56.692Z,16.75
2023-02-11T07:30:00.101Z,18.27
2023-02-11T07:35:04.022Z,17.30
2023-02-11T07:40:11.024Z,17.05
2023-02-11T07:45:15.399Z,18.20
2023-02-11T07:50:18.910Z,17.00
2023-02-11T07:55:23.645Z,17.48
2023-02-11T08:00:27.057Z,18.20
2023-02-11T08:05:30.560Z,17.13
2023-02-11T08:10:35.267Z,17.73
2023-02-11T08:15:38.632Z,18.13
2023-02-11T08:20:42.075Z,17.48
2023-02-11T08:25:46.842Z,17.27
2023-02-11T08:30:50.507Z,18.35
2023-02-11T08:35:54.082Z,17.25
2023-02-11T08:41:01.205Z,17.90
2023-02-11T08:46:05.791Z,19.05
2023-02-11T08:51:10.637Z,18.80
2023-02-11T08:56:16.476Z,18.30
2023-02-11T09:01:23.297Z,18.88
2023-02-11T09:06:27.944Z,18.20
2023-02-11T09:11:34.859Z,18.30
2023-02-11T09:16:38.266Z,19.00
2023-02-11T09:21:41.779Z,17.95
2023-02-11T09:26:46.550Z,18.13
2023-02-11T09:31:50.459Z,19.75
2023-02-11T09:36:54.199Z,18.17
2023-02-11T09:42:42.605Z,18.42
2023-02-11T09:47:55.308Z,17.33
2023-02-11T09:53:02.648Z,18.02
2023-02-11T09:58:12.964Z,17.45
2023-02-11T10:03:44.285Z,16.83
2023-02-11T10:08:58.296Z,17.08
2023-02-11T10:14:12.091Z,17.35
2023-02-11T10:19:33.962Z,16.27
2023-02-11T10:24:38.416Z,14.70
2023-02-11T10:29:45.341Z,13.90
2023-02-11T10:34:50.271Z,15.63
2023-02-11T10:39:53.761Z,14.52
2023-02-11T10:45:01.578Z,19.67
2023-02-11T10:50:20.478Z,16.90
2023-02-11T10:55:28.742Z,16.85
2023-02-11T11:00:40.551Z,15.60
2023-02-11T11:05:50.564Z,16.38
2023-02-11T11:11:08.332Z,15.23
2023-02-11T11:16:19.950Z,16.08
2023-02-11T11:21:26.962Z,17.75
2023-02-11T11:26:41.016Z,17.17
2023-02-11T11:31:51.209Z,18.60
2023-02-11T11:37:01.723Z,20.13
2023-02-11T11:42:07.341Z,18.60
2023-02-11T11:47:28.404Z,18.15
2023-02-11T11:52:41.114Z,19.25
2023-02-11T11:57:44.751Z,18.33
2023-02-11T12:03:24.500Z,17.38
2023-02-11T12:08:40.597Z,20.30
2023-02-11T12:14:01.698Z,18.25
2023-02-11T12:19:45.706Z,17.95
2023-02-11T12:25:18.687Z,18.13
2023-02-11T12:30:35.310Z,18.23
2023-02-11T12:35:51.795Z,17.92
2023-02-11T12:41:11.273Z,18.48
2023-02-11T12:46:35.292Z,17.45
2023-02-11T12:52:04.299Z,17.60
2023-02-11T12:57:16.598Z,17.40
2023-02-11T13:02:28.260Z,19.10
2023-02-11T13:07:37.912Z,17.42
2023-02-11T13:13:03.584Z,17.40
2023-02-11T13:18:21.238Z,18.05
2023-02-11T13:23:31.688Z,19.23
2023-02-11T13:28:46.439Z,17.55
2023-02-11T13:33:50.585Z,18.17
2023-02-11T13:39:00.936Z,18.35
2023-02-11T13:44:23.290Z,16.05
2023-02-11T13:49:31.685Z,18.88
2023-02-11T13:54:38.890Z,17.83
2023-02-11T13:59:49.513Z,18.08
2023-02-11T14:05:42.809Z,17.88
2023-02-11T14:10:51.616Z,16.98
2023-02-11T14:16:08.416Z,18.70
2023-02-11T14:21:14.281Z,17.08
2023-02-11T14:26:35.115Z,17.02
2023-02-11T14:31:45.249Z,16.10
2023-02-11T14:37:04.990Z,17.63
2023-02-11T14:42:19.950Z,17.17
2023-02-11T14:47:31.346Z,17.73
2023-02-11T14:52:38.812Z,17.23
2023-02-11T14:57:44.492Z,16.67
2023-02-11T15:02:50.075Z,17.10
2023-02-11T15:07:55.953Z,15.80
2023-02-11T15:13:00.614Z,16.77
2023-02-11T15:18:06.606Z,16.48
2023-02-11T15:23:19.991Z,17.92
2023-02-11T15:28:26.890Z,17.38
2023-02-11T15:33:32.841Z,16.70
2023-02-11T15:38:36.204Z,16.15
2023-02-11T15:43:44.614Z,16.77
2023-02-11T15:48:51.661Z,15.90
2023-02-11T15:53:58.561Z,17.10
2023-02-11T15:59:12.986Z,16.58
2023-02-11T16:04:21.105Z,16.13
2023-02-11T16:09:34.021Z,15.38
2023-02-11T16:14:39.272Z,17.23
2023-02-11T16:19:47.748Z,17.67
2023-02-11T16:24:54.117Z,17.33
2023-02-11T16:29:58.737Z,16.00
2023-02-11T16:35:05.901Z,15.30
2023-02-11T16:40:12.578Z,14.85
2023-02-11T16:45:16.347Z,15.13
2023-02-11T16:50:25.891Z,14.85
2023-02-11T16:55:29.897Z,15.43
2023-02-11T17:00:33.601Z,15.35
2023-02-11T17:05:54.268Z,15.52
2023-02-11T17:10:58.588Z,15.68
2023-02-11T17:16:02.131Z,14.77
2023-02-11T17:21:09.134Z,14.82
2023-02-11T17:26:12.657Z,15.38
2023-02-11T17:31:16.128Z,16.25
2023-02-11T17:36:21.026Z,14.80
2023-02-11T17:41:24.774Z,14.48
2023-02-11T17:46:29.275Z,13.75
2023-02-11T17:51:36.059Z,15.27
2023-02-11T17:56:40.065Z,13.70
2023-02-11T18:01:44.521Z,13.40
2023-02-11T18:06:50.630Z,14.93
2023-02-11T18:11:54.198Z,13.50
2023-02-11T18:16:57.676Z,14.90
2023-02-11T18:22:04.318Z,13.68
2023-02-11T18:27:07.930Z,14.63
2023-02-11T18:32:11.488Z,14.02
2023-02-11T18:37:16.383Z,13.63
2023-02-11T18:42:19.789Z,16.23
2023-02-11T18:47:23.473Z,14.38
2023-02-11T18:52:28.499Z,15.35
2023-02-11T18:57:31.978Z,15.18
2023-02-11T19:02:35.464Z,16.00
2023-02-11T19:07:40.724Z,14.73
2023-02-11T19:12:44.100Z,15.48
2023-02-11T19:17:47.473Z,14.73
2023-02-11T19:22:52.276Z,13.02
2023-02-11T19:27:55.694Z,13.55
2023-02-11T19:32:59.058Z,16.08
2023-02-11T19:38:04.275Z,16.73
2023-02-11T19:43:07.673Z,15.95
2023-02-11T19:48:13.706Z,15.43
2023-02-11T19:53:18.429Z,16.15
2023-02-11T19:58:21.820Z,15.88
2023-02-11T20:03:25.273Z,15.27
2023-02-11T20:08:30.354Z,15.52
2023-02-11T20:13:34.895Z,13.93
2023-02-11T20:18:38.242Z,13.65
2023-02-11T20:23:44.881Z,15.57
2023-02-11T20:28:49.856Z,12.60
2023-02-11T20:33:53.325Z,14.65
2023-02-11T20:38:58.051Z,13.88
2023-02-11T20:44:03.688Z,17.42
2023-02-11T20:49:08.699Z,17.33
2023-02-11T20:54:16.245Z,17.67
2023-02-11T20:59:20.991Z,16.98
2023-02-11T21:04:26.214Z,18.15
2023-02-11T21:09:33.609Z,20.13
2023-02-11T21:14:36.990Z,19.90
2023-02-11T21:19:41.395Z,20.42
2023-02-11T21:24:46.160Z,20.60
2023-02-11T21:29:54.622Z,19.60
2023-02-11T21:35:00.553Z,18.73
2023-02-11T21:40:07.802Z,19.10
2023-02-11T21:45:11.330Z,17.98
2023-02-11T21:50:14.687Z,17.65
2023-02-11T21:55:19.855Z,18.55
2023-02-11T22:00:23.876Z,18.80
2023-02-11T22:05:27.353Z,17.95
2023-02-11T22:10:32.507Z,16.33
2023-02-11T22:15:35.944Z,20.67
2023-02-11T22:20:39.524Z,17.80
2023-02-11T22:25:44.240Z,19.70
2023-02-11T22:30:47.663Z,19.35
2023-02-11T22:35:58.394Z,18.83
2023-02-11T22:41:07.858Z,18.38
2023-02-11T22:46:14.532Z,18.85
2023-02-11T22:51:20.505Z,16.95
2023-02-11T22:56:26.380Z,19.05
2023-02-11T23:01:31.405Z,17.88
2023-02-11T23:06:35.380Z,18.55
2023-02-11T23:11:41.059Z,18.27
2023-02-11T23:16:44.835Z,19.13
2023-02-11T23:21:52.470Z,17.13
2023-02-11T23:26:57.226Z,16.25
2023-02-11T23:32:00.712Z,17.55
2023-02-11T23:37:04.315Z,16.63
2023-02-11T23:42:09.144Z,18.55
2023-02-11T23:47:12.517Z,17.92
2023-02-11T23:52:16.240Z,16.63
2023-02-11T23:57:21.014Z,17.23
